Time;durP1;ratioP1;P1;durP2;ratioP2;P2;SDS_P1;SDS_P2;PMS_P1;PMS_P2;Temp;Humidity;BMP_temperature;BMP_pressure;BME280_temperature;BME280_humidity;BME280_pressure;Samples;Min_cycle;Max_cycle;Signal;HPM_P1;HPM_P2
2022/03/04 00:01:18;;;;;;;17.27;11.43;;;;;;;-0.93;75.72;98271.38;5114214;28;20213;-68
2022/03/04 00:03:45;;;;;;;15.30;9.90;;;;;;;-0.84;75.89;98265.13;5105890;28;20217;-69
2022/03/04 00:06:12;;;;;;;15.17;10.80;;;;;;;-0.83;75.95;98266.84;5114090;28;20217;-68
2022/03/04 00:08:40;;;;;;;15.43;10.73;;;;;;;-0.82;75.41;98259.03;5114064;28;20559;-69
2022/03/04 00:11:08;;;;;;;17.33;10.73;;;;;;;-0.78;75.70;98265.00;5114138;28;20260;-69
2022/03/04 00:13:34;;;;;;;17.07;10.97;;;;;;;-0.77;76.44;98262.38;5105486;28;20223;-68
2022/03/04 00:16:01;;;;;;;16.63;11.60;;;;;;;-0.78;76.07;98259.81;5113431;28;20249;-68
2022/03/04 00:18:27;;;;;;;16.23;9.87;;;;;;;-0.69;76.70;98262.22;5112249;28;20658;-69
2022/03/04 00:20:54;;;;;;;16.87;11.07;;;;;;;-0.68;76.37;98261.31;5113867;28;20550;-69
2022/03/04 00:23:21;;;;;;;14.27;10.20;;;;;;;-0.63;75.25;98262.06;5113785;28;20213;-69
2022/03/04 00:25:49;;;;;;;14.67;10.57;;;;;;;-0.60;74.29;98264.56;5113435;28;20214;-69
2022/03/04 00:28:15;;;;;;;18.30;11.40;;;;;;;-0.57;73.75;98274.91;5113730;28;20208;-68
2022/03/04 00:30:42;;;;;;;15.57;10.60;;;;;;;-0.65;74.78;98271.59;5110550;28;20217;-68
2022/03/04 00:33:08;;;;;;;15.30;10.53;;;;;;;-0.64;74.16;98275.91;5113697;28;20299;-68
2022/03/04 00:35:35;;;;;;;16.93;10.33;;;;;;;-0.74;74.28;98271.81;5113648;28;20240;-68
2022/03/04 00:38:01;;;;;;;17.37;10.77;;;;;;;-0.87;77.79;98280.78;5113334;28;20688;-68
2022/03/04 00:40:28;;;;;;;17.30;11.07;;;;;;;-0.88;78.34;98274.72;5113497;28;20217;-69
2022/03/04 00:42:56;;;;;;;19.10;11.70;;;;;;;-0.88;78.08;98284.22;5111839;28;20219;-69
2022/03/04 00:45:22;;;;;;;19.23;12.23;;;;;;;-0.87;79.35;98281.59;5113520;28;20221;-70
2022/03/04 00:47:48;;;;;;;19.47;12.17;;;;;;;-0.92;79.89;98282.63;5113410;28;20216;-70
2022/03/04 00:50:15;;;;;;;17.53;12.53;;;;;;;-0.98;81.07;98283.56;5113420;28;20217;-70
2022/03/04 00:52:41;;;;;;;21.77;13.40;;;;;;;-1.08;82.32;98283.81;5113403;28;20214;-70
2022/03/04 00:55:09;;;;;;;19.50;13.40;;;;;;;-1.10;82.88;98283.00;5113430;28;20244;-69
2022/03/04 00:57:35;;;;;;;18.03;12.50;;;;;;;-1.11;83.56;98281.31;5113097;28;20764;-69
2022/03/04 01:00:05;;;;;;;17.73;12.57;;;;;;;-1.17;84.25;98286.63;5113351;28;20216;-69
2022/03/04 01:02:32;;;;;;;18.63;12.00;;;;;;;-1.11;83.20;98286.50;5113389;28;20661;-70
2022/03/04 01:04:58;;;;;;;17.07;11.47;;;;;;;-1.11;82.46;98281.31;5113108;28;20722;-70
2022/03/04 01:07:25;;;;;;;17.03;10.93;;;;;;;-1.05;80.81;98287.19;5113313;28;20215;-70
2022/03/04 01:09:51;;;;;;;15.33;10.73;;;;;;;-1.02;79.84;98279.38;5111657;28;20241;-69
2022/03/04 01:12:17;;;;;;;16.87;11.70;;;;;;;-1.06;80.09;98289.84;5113366;28;20215;-69
2022/03/04 01:14:44;;;;;;;17.40;11.53;;;;;;;-0.85;76.72;98279.00;5113071;28;20247;-69
2022/03/04 01:17:12;;;;;;;18.23;10.90;;;;;;;-0.78;75.59;98280.56;5113111;28;20207;-68
2022/03/04 01:19:38;;;;;;;18.07;10.63;;;;;;;-0.74;74.95;98284.81;5113417;28;20216;-68
2022/03/04 01:22:05;;;;;;;15.43;10.47;;;;;;;-0.76;75.01;98276.19;5113270;28;20226;-69
2022/03/04 01:24:32;;;;;;;16.33;11.60;;;;;;;-0.86;75.43;98287.66;5113236;28;20216;-68
2022/03/04 01:26:58;;;;;;;17.53;11.03;;;;;;;-1.06;76.08;98284.66;5114759;28;20217;-69
2022/03/04 01:29:25;;;;;;;17.57;11.33;;;;;;;-1.27;77.07;98280.75;5116852;28;20217;-69
2022/03/04 01:31:51;;;;;;;15.23;10.10;;;;;;;-1.44;79.18;98281.97;5117184;28;20222;-69
2022/03/04 01:34:19;;;;;;;16.47;10.70;;;;;;;-1.54;79.35;98285.63;5115472;28;20223;-69
2022/03/04 01:36:46;;;;;;;14.80;10.20;;;;;;;-1.61;79.51;98278.88;5116873;28;20217;-70
2022/03/04 01:39:12;;;;;;;13.90;10.20;;;;;;;-1.60;79.65;98286.59;5117024;28;20220;-70
2022/03/04 01:41:38;;;;;;;17.53;10.40;;;;;;;-1.67;79.42;98284.16;5116671;28;20215;-70
2022/03/04 01:44:05;;;;;;;17.83;11.30;;;;;;;-1.71;80.21;98272.16;5115746;28;20683;-68
2022/03/04 01:46:33;;;;;;;15.97;10.33;;;;;;;-1.76;80.59;98280.00;5116863;28;20221;-68
2022/03/04 01:48:59;;;;;;;17.33;11.33;;;;;;;-1.85;81.09;98279.31;5108854;28;20222;-69
2022/03/04 01:51:27;;;;;;;18.03;11.10;;;;;;;-1.93;82.08;98269.09;5116962;28;20218;-68
2022/03/04 01:53:54;;;;;;;16.73;11.00;;;;;;;-1.94;83.13;98274.28;5108858;28;20592;-69
2022/03/04 01:56:21;;;;;;;17.77;10.93;;;;;;;-1.99;83.42;98276.09;5116481;28;20245;-69
2022/03/04 01:58:48;;;;;;;19.47;11.57;;;;;;;-1.96;83.50;98276.06;5108449;28;20220;-69
2022/03/04 02:01:15;;;;;;;17.57;10.83;;;;;;;-1.88;82.62;98266.41;5114019;28;20584;-69
2022/03/04 02:03:41;;;;;;;16.10;11.10;;;;;;;-1.92;83.75;98267.34;5115685;28;20307;-69
2022/03/04 02:06:08;;;;;;;16.07;10.90;;;;;;;-1.95;84.38;98262.22;5115194;28;20219;-69
2022/03/04 02:08:35;;;;;;;16.33;11.10;;;;;;;-1.90;84.11;98266.44;5115153;28;20217;-69
2022/03/04 02:11:02;;;;;;;15.73;10.60;;;;;;;-1.89;84.21;98265.53;5115603;28;20631;-69
2022/03/04 02:13:28;;;;;;;16.63;10.57;;;;;;;-1.81;84.19;98260.25;5116285;28;20226;-69
2022/03/04 02:15:55;;;;;;;17.17;11.63;;;;;;;-1.77;83.90;98256.72;5116127;28;20261;-69
2022/03/04 02:18:22;;;;;;;17.87;11.07;;;;;;;-1.72;83.43;98255.72;5116175;28;20231;-70
2022/03/04 02:20:49;;;;;;;18.73;11.30;;;;;;;-1.65;83.26;98261.66;5116201;28;20214;-70
2022/03/04 02:23:18;;;;;;;17.63;11.83;;;;;;;-1.57;82.50;98254.59;5116187;28;20597;-69
2022/03/04 02:25:47;;;;;;;20.27;11.00;;;;;;;-1.61;82.62;98258.16;5115744;28;20249;-69
2022/03/04 02:28:14;;;;;;;16.03;11.23;;;;;;;-1.73;84.00;98258.38;5114337;28;20214;-68
2022/03/04 02:30:41;;;;;;;22.23;11.83;;;;;;;-1.78;84.83;98255.03;5116124;28;20218;-68
2022/03/04 02:33:08;;;;;;;17.20;11.57;;;;;;;-1.82;84.80;98259.41;5115767;28;20683;-68
2022/03/04 02:35:36;;;;;;;17.47;10.93;;;;;;;-1.81;84.80;98255.06;5115705;28;20242;-69
2022/03/04 02:38:03;;;;;;;16.83;11.43;;;;;;;-1.80;85.51;98251.56;5114596;28;20221;-68
2022/03/04 02:40:31;;;;;;;17.10;10.97;;;;;;;-1.72;85.32;98252.31;5115912;28;20210;-69
2022/03/04 02:42:58;;;;;;;17.47;11.07;;;;;;;-1.68;84.00;98257.41;5115751;28;20211;-68
2022/03/04 02:45:25;;;;;;;16.20;11.20;;;;;;;-1.63;83.53;98244.34;5115763;28;20213;-69
2022/03/04 02:47:52;;;;;;;16.90;10.77;;;;;;;-1.59;83.44;98251.19;5115706;28;20580;-69
2022/03/04 02:50:18;;;;;;;16.27;10.43;;;;;;;-1.57;82.92;98244.22;5115659;28;20272;-68
2022/03/04 02:52:45;;;;;;;16.50;10.77;;;;;;;-1.66;83.41;98244.41;5113453;28;20299;-70
2022/03/04 02:55:12;;;;;;;18.47;10.07;;;;;;;-1.65;83.45;98253.91;5115437;28;20607;-68
2022/03/04 02:57:42;;;;;;;19.40;11.10;;;;;;;-1.68;83.67;98248.75;5115292;28;20245;-68
2022/03/04 03:00:09;;;;;;;16.33;10.93;;;;;;;-1.61;83.08;98247.78;5115497;28;20206;-68
2022/03/04 03:02:36;;;;;;;18.80;11.10;;;;;;;-1.68;84.22;98248.75;5115331;28;20226;-68
2022/03/04 03:05:03;;;;;;;19.10;12.07;;;;;;;-1.61;83.25;98255.56;5115440;28;20273;-68
2022/03/04 03:07:30;;;;;;;16.17;11.20;;;;;;;-1.66;84.39;98250.44;5115363;28;20735;-68
2022/03/04 03:09:57;;;;;;;19.43;11.70;;;;;;;-1.64;83.66;98247.81;5115144;28;20254;-68
2022/03/04 03:12:23;;;;;;;19.30;11.87;;;;;;;-1.66;83.52;98244.41;5115020;28;20661;-68
2022/03/04 03:14:51;;;;;;;17.90;11.87;;;;;;;-1.68;83.15;98251.34;5115133;28;20216;-68
2022/03/04 03:17:18;;;;;;;18.83;11.93;;;;;;;-1.63;82.36;98257.31;5114576;28;20668;-68
2022/03/04 03:19:44;;;;;;;19.27;12.23;;;;;;;-1.63;81.07;98252.97;5113356;28;20222;-69
2022/03/04 03:22:12;;;;;;;17.73;11.97;;;;;;;-1.60;80.62;98254.66;5114636;28;20207;-69
2022/03/04 03:24:38;;;;;;;17.00;11.17;;;;;;;-1.61;81.27;98255.56;5114986;28;20223;-68
2022/03/04 03:27:05;;;;;;;16.13;10.50;;;;;;;-1.60;81.69;98259.84;5114875;28;20220;-69
2022/03/04 03:29:31;;;;;;;17.23;11.17;;;;;;;-1.53;80.66;98251.06;5114587;28;20225;-69
2022/03/04 03:31:59;;;;;;;15.70;10.77;;;;;;;-1.54;80.36;98259.72;5114608;28;20214;-68
2022/03/04 03:34:25;;;;;;;16.70;10.80;;;;;;;-1.45;79.90;98260.41;5114564;28;20211;-69
2022/03/04 03:36:52;;;;;;;14.83;10.37;;;;;;;-1.51;79.95;98251.88;5114222;28;20257;-69
2022/03/04 03:39:18;;;;;;;20.10;12.00;;;;;;;-1.56;81.10;98246.78;5114634;28;20214;-68
2022/03/04 03:41:45;;;;;;;15.57;10.90;;;;;;;-1.62;81.82;98259.00;5114377;28;20214;-68
2022/03/04 03:44:11;;;;;;;16.77;10.90;;;;;;;-1.63;81.96;98259.88;5114591;28;20215;-69
2022/03/04 03:46:38;;;;;;;18.93;11.40;;;;;;;-1.62;82.23;98261.59;5113116;28;20293;-68
2022/03/04 03:49:06;;;;;;;17.33;10.97;;;;;;;-1.71;82.58;98266.97;5113964;28;20218;-68
2022/03/04 03:51:33;;;;;;;18.50;11.67;;;;;;;-1.76;83.75;98264.47;5114324;28;20227;-68
2022/03/04 03:54:00;;;;;;;16.90;10.30;;;;;;;-1.82;84.76;98274.06;5114567;28;20206;-68
2022/03/04 03:56:26;;;;;;;17.90;11.67;;;;;;;-1.81;85.37;98273.19;5114225;28;20260;-68
2022/03/04 03:58:53;;;;;;;15.80;10.57;;;;;;;-1.88;85.72;98274.19;5114254;28;20306;-68
2022/03/04 04:01:19;;;;;;;17.27;11.47;;;;;;;-1.88;86.66;98284.53;5114114;28;20270;-68
2022/03/04 04:03:46;;;;;;;17.73;12.03;;;;;;;-1.76;86.63;98280.00;5113832;28;20214;-68
2022/03/04 04:06:14;;;;;;;19.87;11.97;;;;;;;-1.77;86.64;98280.03;5114261;28;20210;-68
2022/03/04 04:08:41;;;;;;;21.07;11.50;;;;;;;-1.81;87.30;98280.97;5114011;28;20221;-68
2022/03/04 04:11:08;;;;;;;18.07;11.33;;;;;;;-1.84;86.99;98281.03;5111923;28;20235;-68
2022/03/04 04:13:35;;;;;;;18.73;11.57;;;;;;;-1.77;85.39;98287.81;5112684;28;20215;-68
2022/03/04 04:16:01;;;;;;;19.30;11.20;;;;;;;-1.71;84.23;98280.75;5110560;28;20293;-69
2022/03/04 04:18:28;;;;;;;16.67;11.17;;;;;;;-1.73;83.63;98285.13;5113962;28;20219;-68
2022/03/04 04:20:54;;;;;;;15.80;10.63;;;;;;;-1.79;83.66;98285.22;5113814;28;20220;-68
2022/03/04 04:23:22;;;;;;;16.67;11.20;;;;;;;-1.96;85.13;98291.59;5105758;28;20219;-69
2022/03/04 04:25:49;;;;;;;21.50;12.73;;;;;;;-2.10;86.09;98285.78;5113652;28;20713;-69
2022/03/04 04:28:16;;;;;;;20.00;12.37;;;;;;;-2.13;86.61;98283.28;5105386;28;20209;-69
2022/03/04 04:30:42;;;;;;;16.30;11.30;;;;;;;-2.22;87.13;98283.41;5113611;28;20241;-68
2022/03/04 04:33:09;;;;;;;17.97;11.37;;;;;;;-2.17;86.89;98292.81;5113830;28;20226;-68
2022/03/04 04:35:35;;;;;;;20.27;12.13;;;;;;;-2.13;86.08;98293.63;5113779;28;20596;-68
2022/03/04 04:38:02;;;;;;;16.60;11.43;;;;;;;-2.08;85.60;98291.81;5111719;28;20719;-68
2022/03/04 04:40:29;;;;;;;19.30;11.97;;;;;;;-2.15;86.68;98285.03;5113236;28;20852;-68
2022/03/04 04:42:56;;;;;;;20.70;12.40;;;;;;;-2.14;86.51;98286.75;5113261;28;20227;-68
2022/03/04 04:45:22;;;;;;;15.23;10.60;;;;;;;-2.19;86.57;98291.13;5113447;28;20215;-68
2022/03/04 04:47:49;;;;;;;20.93;12.00;;;;;;;-2.29;87.76;98292.16;5113575;28;20218;-68
2022/03/04 04:50:15;;;;;;;20.40;12.30;;;;;;;-2.17;87.56;98290.25;5113355;28;20209;-68
2022/03/04 04:52:42;;;;;;;18.77;11.63;;;;;;;-2.08;87.19;98297.84;5113533;28;20208;-68
2022/03/04 04:55:09;;;;;;;23.83;13.37;;;;;;;-2.05;86.75;98296.94;5113395;28;20218;-68
2022/03/04 04:57:37;;;;;;;20.37;12.27;;;;;;;-2.01;86.77;98298.59;5113188;28;20229;-68
2022/03/04 05:00:05;;;;;;;21.83;12.57;;;;;;;-2.02;86.41;98296.91;5113172;28;20695;-68
2022/03/04 05:02:32;;;;;;;21.07;12.33;;;;;;;-2.09;86.69;98303.06;5114702;28;20219;-68
2022/03/04 05:04:59;;;;;;;18.57;12.27;;;;;;;-2.10;86.50;98303.91;5117611;28;20215;-69
2022/03/04 05:07:25;;;;;;;20.83;13.10;;;;;;;-2.19;86.46;98304.09;5117753;28;20221;-68
2022/03/04 05:09:52;;;;;;;19.87;12.00;;;;;;;-2.46;89.00;98314.88;5117610;28;20233;-68
2022/03/04 05:12:19;;;;;;;19.67;12.67;;;;;;;-2.54;89.40;98316.72;5117794;28;20214;-68
2022/03/04 05:14:46;;;;;;;20.83;12.10;;;;;;;-2.48;89.55;98317.50;5117396;28;20572;-69
2022/03/04 05:17:13;;;;;;;22.30;12.30;;;;;;;-2.38;88.42;98313.03;5116973;28;20725;-69
2022/03/04 05:19:39;;;;;;;18.07;11.83;;;;;;;-2.32;88.05;98312.94;5117479;28;20210;-69
2022/03/04 05:22:06;;;;;;;21.37;12.70;;;;;;;-2.27;87.52;98321.47;5117330;28;20224;-69
2022/03/04 05:24:32;;;;;;;20.30;13.37;;;;;;;-2.28;87.71;98319.78;5117344;28;20210;-68
2022/03/04 05:26:59;;;;;;;20.33;12.37;;;;;;;-2.33;87.96;98311.22;5117260;28;20218;-68
2022/03/04 05:29:25;;;;;;;18.13;11.40;;;;;;;-2.35;88.47;98313.81;5112367;28;20210;-68
2022/03/04 05:31:53;;;;;;;19.80;12.53;;;;;;;-2.37;88.84;98314.72;5117138;28;20220;-68
2022/03/04 05:34:19;;;;;;;18.80;12.43;;;;;;;-2.30;88.50;98316.34;5116903;28;20222;-68
2022/03/04 05:36:46;;;;;;;21.33;13.13;;;;;;;-2.27;88.84;98316.31;5116993;28;20246;-68
2022/03/04 05:39:12;;;;;;;20.40;12.97;;;;;;;-2.19;88.42;98320.47;5117223;28;20210;-68
2022/03/04 05:41:39;;;;;;;21.10;13.73;;;;;;;-2.20;88.83;98334.28;5116871;28;20225;-68
2022/03/04 05:44:06;;;;;;;20.47;12.77;;;;;;;-2.15;88.25;98324.72;5116598;28;20214;-68
2022/03/04 05:46:33;;;;;;;25.97;14.30;;;;;;;-2.18;88.50;98331.66;5116501;28;20214;-68
2022/03/04 05:49:02;;;;;;;21.57;13.00;;;;;;;-2.07;87.61;98332.38;5116696;28;20210;-68
2022/03/04 05:51:29;;;;;;;19.73;12.93;;;;;;;-2.06;87.45;98331.47;5116755;28;20267;-68
2022/03/04 05:53:56;;;;;;;21.53;12.77;;;;;;;-2.10;87.74;98335.84;5116471;28;20676;-68
2022/03/04 05:56:23;;;;;;;19.03;13.00;;;;;;;-2.18;88.38;98336.84;5114964;28;20233;-68
2022/03/04 05:58:50;;;;;;;20.70;13.13;;;;;;;-2.27;88.98;98342.19;5116665;28;20229;-68
2022/03/04 06:01:16;;;;;;;20.07;13.47;;;;;;;-2.29;89.28;98338.75;5116673;28;20626;-68
2022/03/04 06:03:43;;;;;;;21.03;13.53;;;;;;;-2.33;89.27;98331.94;5116294;28;20214;-68
2022/03/04 06:06:12;;;;;;;21.50;13.33;;;;;;;-2.33;89.45;98335.34;5116502;28;20246;-68
2022/03/04 06:08:39;;;;;;;18.53;12.13;;;;;;;-2.42;89.87;98334.66;5116609;28;20259;-68
2022/03/04 06:11:08;;;;;;;21.37;13.47;;;;;;;-2.36;90.18;98344.91;5116328;28;20238;-68
2022/03/04 06:13:34;;;;;;;20.60;13.07;;;;;;;-2.37;90.18;98343.19;5116089;28;20235;-68
2022/03/04 06:16:01;;;;;;;21.20;13.47;;;;;;;-2.49;91.10;98345.97;5116157;28;20206;-68
2022/03/04 06:18:27;;;;;;;22.40;13.47;;;;;;;-2.60;92.81;98343.53;5116048;28;20206;-68
2022/03/04 06:20:54;;;;;;;22.50;13.77;;;;;;;-2.55;92.92;98340.88;5114590;28;20246;-68
2022/03/04 06:23:22;;;;;;;20.40;12.53;;;;;;;-2.57;93.35;98342.66;5116351;28;20311;-68
2022/03/04 06:25:50;;;;;;;21.83;14.00;;;;;;;-2.56;93.98;98354.69;5115993;28;20707;-69
2022/03/04 06:28:16;;;;;;;21.00;14.07;;;;;;;-2.55;94.64;98353.81;5116142;28;20209;-68
2022/03/04 06:30:43;;;;;;;19.93;13.00;;;;;;;-2.47;94.07;98357.13;5116380;28;20217;-68
2022/03/04 06:35:55;;;;;;;19.87;13.80;;;;;;;-2.26;92.57;98362.00;5115813;28;20232;-68
2022/03/04 06:38:23;;;;;;;20.97;13.33;;;;;;;-2.24;92.22;98358.53;5116116;28;20228;-68
2022/03/04 06:40:50;;;;;;;20.73;12.63;;;;;;;-2.24;92.20;98360.25;5115808;28;20213;-68
2022/03/04 06:43:17;;;;;;;19.53;12.63;;;;;;;-2.11;91.52;98364.34;5116160;28;20218;-68
2022/03/04 06:45:45;;;;;;;22.93;13.63;;;;;;;-2.03;90.95;98368.53;5115706;28;20215;-68
2022/03/04 06:48:12;;;;;;;19.03;12.40;;;;;;;-1.95;90.66;98371.00;5114161;28;20219;-68
2022/03/04 06:50:39;;;;;;;23.43;13.87;;;;;;;-1.95;90.50;98373.59;5115234;28;20256;-69
2022/03/04 06:53:06;;;;;;;19.63;13.17;;;;;;;-1.91;90.86;98377.84;5115258;28;20219;-68
2022/03/04 06:55:34;;;;;;;22.80;13.90;;;;;;;-1.93;90.88;98379.59;5115594;28;20207;-68
2022/03/04 06:58:01;;;;;;;20.30;13.73;;;;;;;-1.93;92.73;98390.81;5115153;28;20238;-68
2022/03/04 07:00:28;;;;;;;20.93;13.63;;;;;;;-1.87;92.11;98395.03;5115116;28;20219;-68
2022/03/04 07:02:54;;;;;;;24.13;14.17;;;;;;;-1.79;92.03;98395.78;5115356;28;20241;-68
2022/03/04 07:05:22;;;;;;;20.13;13.27;;;;;;;-1.73;90.63;98399.09;5115198;28;20220;-68
2022/03/04 07:07:49;;;;;;;21.07;13.93;;;;;;;-1.63;90.29;98398.09;5115076;28;20212;-68
2022/03/04 07:10:16;;;;;;;21.87;13.77;;;;;;;-1.45;87.15;98399.50;5115355;28;20235;-68
2022/03/04 07:12:45;;;;;;;20.33;13.03;;;;;;;-1.37;86.99;98408.84;5113189;28;20217;-67
2022/03/04 07:15:11;;;;;;;19.80;13.13;;;;;;;-1.22;86.66;98420.69;5115227;28;20214;-67
2022/03/04 07:17:38;;;;;;;20.37;13.63;;;;;;;-1.14;87.99;98422.25;5114927;28;20235;-69
2022/03/04 07:20:06;;;;;;;26.37;14.53;;;;;;;-1.03;88.71;98416.84;5115012;28;20226;-69
2022/03/04 07:22:33;;;;;;;22.93;14.43;;;;;;;-0.98;89.22;98410.69;5115021;28;20260;-69
2022/03/04 07:24:59;;;;;;;20.13;13.43;;;;;;;-0.89;87.89;98412.25;5113924;28;20219;-69
2022/03/04 07:27:25;;;;;;;22.37;14.20;;;;;;;-0.84;84.79;98420.78;5114988;28;20584;-68
2022/03/04 07:29:53;;;;;;;19.70;13.07;;;;;;;-0.83;84.19;98412.13;5114912;28;20212;-69
2022/03/04 07:32:21;;;;;;;20.33;12.67;;;;;;;-0.75;83.03;98420.63;5114887;28;20206;-68
2022/03/04 07:34:47;;;;;;;18.47;12.43;;;;;;;-0.61;82.56;98416.00;5114856;28;20213;-67
2022/03/04 07:37:14;;;;;;;18.50;12.73;;;;;;;-0.55;82.25;98423.66;5114739;28;20270;-67
2022/03/04 07:39:40;;;;;;;19.63;12.77;;;;;;;-0.48;82.58;98433.03;5113112;28;20212;-67
2022/03/04 07:42:07;;;;;;;18.57;12.23;;;;;;;-0.40;83.00;98428.50;5114371;28;20686;-67
2022/03/04 07:44:34;;;;;;;21.63;13.20;;;;;;;-0.34;82.04;98428.38;5114943;28;20220;-67
2022/03/04 07:47:02;;;;;;;19.13;12.60;;;;;;;-0.28;82.11;98424.75;5114701;28;20240;-67
2022/03/04 07:49:28;;;;;;;20.93;13.20;;;;;;;-0.12;79.75;98420.09;5114367;28;20222;-67
2022/03/04 07:51:54;;;;;;;20.03;13.10;;;;;;;-0.04;79.84;98420.78;5114510;28;20213;-67
2022/03/04 07:54:21;;;;;;;20.47;12.70;;;;;;;0.01;78.73;98411.97;5113930;28;20221;-67
2022/03/04 07:56:48;;;;;;;21.00;13.20;;;;;;;0.05;78.05;98411.03;5113986;28;20725;-67
2022/03/04 07:59:14;;;;;;;19.03;12.73;;;;;;;0.17;78.20;98413.34;5113921;28;20213;-67
2022/03/04 08:01:41;;;;;;;19.77;13.83;;;;;;;0.29;78.14;98423.44;5114298;28;20218;-67
2022/03/04 08:04:11;;;;;;;22.73;13.63;;;;;;;0.49;78.83;98420.38;5114385;28;20209;-67
2022/03/04 08:06:38;;;;;;;20.67;13.77;;;;;;;0.58;78.97;98420.13;5105060;28;20245;-67
2022/03/04 08:09:04;;;;;;;22.57;13.53;;;;;;;0.72;78.11;98428.41;5113890;28;20233;-67
2022/03/04 08:11:31;;;;;;;20.40;13.97;;;;;;;0.79;77.06;98423.00;5114135;28;20226;-67
2022/03/04 08:13:58;;;;;;;21.90;13.50;;;;;;;0.97;78.52;98430.34;5114020;28;20220;-68
2022/03/04 08:16:25;;;;;;;22.80;14.80;;;;;;;1.09;77.70;98435.22;5106292;28;20220;-67
2022/03/04 08:18:52;;;;;;;21.33;14.30;;;;;;;1.22;74.93;98426.16;5112692;28;20220;-68
2022/03/04 08:21:20;;;;;;;20.27;13.23;;;;;;;1.26;74.62;98433.00;5105651;28;20210;-67
2022/03/04 08:23:46;;;;;;;24.87;13.97;;;;;;;1.37;75.13;98423.16;5112559;28;20213;-67
2022/03/04 08:26:13;;;;;;;20.87;14.33;;;;;;;1.36;74.90;98424.03;5113520;28;20697;-67
2022/03/04 08:28:39;;;;;;;22.23;14.23;;;;;;;1.48;74.47;98431.50;5112523;28;20282;-67
2022/03/04 08:31:10;;;;;;;23.03;14.40;;;;;;;1.63;73.90;98428.47;5110795;28;20303;-67
2022/03/04 08:33:37;;;;;;;21.50;14.77;;;;;;;1.74;70.77;98431.59;5112277;28;20221;-68
2022/03/04 08:36:04;;;;;;;20.07;13.93;;;;;;;1.79;72.47;98428.84;5103539;28;20214;-69
2022/03/04 08:38:32;;;;;;;22.07;13.80;;;;;;;1.86;72.44;98441.66;5111685;28;20248;-69
2022/03/04 08:40:58;;;;;;;21.00;14.27;;;;;;;1.98;72.73;98430.88;5104269;28;20689;-68
2022/03/04 08:43:25;;;;;;;21.40;14.30;;;;;;;2.00;72.19;98434.28;5110119;28;20589;-67
2022/03/04 08:45:52;;;;;;;22.63;15.23;;;;;;;2.12;72.69;98441.72;5095602;28;20213;-66
2022/03/04 08:48:18;;;;;;;24.07;16.03;;;;;;;2.28;73.26;98434.28;5108174;28;20220;-67
2022/03/04 08:50:45;;;;;;;23.07;15.50;;;;;;;2.47;70.79;98440.59;5112154;28;20212;-67
2022/03/04 08:53:11;;;;;;;27.20;15.57;;;;;;;2.52;72.49;98444.75;5113397;28;20223;-67
2022/03/04 08:55:44;;;;;;;24.00;15.80;;;;;;;2.62;71.47;98435.72;5113495;28;20577;-67
2022/03/04 08:58:11;;;;;;;22.43;15.47;;;;;;;2.85;71.20;98448.00;5111685;28;20316;-67
2022/03/04 09:00:38;;;;;;;22.27;15.20;;;;;;;2.89;69.46;98449.63;5113144;28;20213;-68
2022/03/04 09:03:05;;;;;;;20.07;14.57;;;;;;;2.98;69.49;98449.28;5113341;28;20221;-68
2022/03/04 09:05:31;;;;;;;23.60;16.13;;;;;;;3.02;68.08;98446.56;5113118;28;20678;-68
2022/03/04 09:07:58;;;;;;;20.40;14.67;;;;;;;3.13;66.21;98439.16;5113385;28;20577;-68
2022/03/04 09:10:25;;;;;;;21.80;15.80;;;;;;;3.22;68.41;98438.88;5113305;28;20240;-70
2022/03/04 09:12:52;;;;;;;23.17;15.23;;;;;;;3.35;65.36;98445.34;5113292;28;20220;-67
2022/03/04 09:15:19;;;;;;;24.17;16.57;;;;;;;3.40;64.75;98433.00;5113257;28;20221;-67
2022/03/04 09:17:46;;;;;;;23.20;14.70;;;;;;;3.48;65.88;98433.56;5113086;28;20255;-67
2022/03/04 09:20:14;;;;;;;23.27;14.77;;;;;;;3.57;64.16;98432.38;5112970;28;20210;-67
2022/03/04 09:22:40;;;;;;;25.07;15.27;;;;;;;3.74;65.23;98433.44;5113017;28;20215;-67
2022/03/04 09:25:08;;;;;;;23.07;15.47;;;;;;;3.75;64.90;98439.53;5111840;28;20210;-67
2022/03/04 09:27:34;;;;;;;24.57;16.07;;;;;;;3.76;63.99;98430.78;5113237;28;20223;-67
2022/03/04 09:30:03;;;;;;;23.87;16.43;;;;;;;3.79;62.55;98426.28;5112752;28;20221;-67
2022/03/04 09:32:30;;;;;;;25.33;15.73;;;;;;;3.80;62.49;98427.16;5113141;28;20227;-67
2022/03/04 09:34:56;;;;;;;22.50;15.20;;;;;;;3.86;62.00;98427.75;5112774;28;20690;-67
2022/03/04 09:37:23;;;;;;;22.20;15.47;;;;;;;3.94;62.46;98425.72;5112609;28;20667;-67
2022/03/04 09:39:49;;;;;;;25.77;15.07;;;;;;;3.95;60.32;98430.03;5112849;28;20210;-67
2022/03/04 09:42:18;;;;;;;26.43;16.23;;;;;;;4.03;60.59;98429.75;5112944;28;20223;-67
2022/03/04 09:44:45;;;;;;;22.53;15.87;;;;;;;4.16;60.60;98431.81;5112700;28;20218;-67
2022/03/04 09:47:13;;;;;;;23.17;16.47;;;;;;;4.22;59.53;98434.19;5112936;28;20215;-67
2022/03/04 09:49:39;;;;;;;23.30;15.30;;;;;;;4.22;59.04;98438.56;5114843;28;20563;-67
2022/03/04 09:52:08;;;;;;;26.17;17.57;;;;;;;4.24;58.83;98436.75;5116752;28;20233;-66
2022/03/04 09:54:35;;;;;;;24.70;16.27;;;;;;;4.34;58.97;98438.94;5116411;28;20294;-67
2022/03/04 09:57:01;;;;;;;22.33;15.93;;;;;;;4.37;58.12;98430.09;5116126;28;20216;-69
2022/03/04 09:59:28;;;;;;;24.47;16.30;;;;;;;4.50;58.71;98437.41;5116459;28;20220;-67
2022/03/04 10:01:57;;;;;;;25.10;17.00;;;;;;;4.51;57.09;98433.88;5116136;28;20233;-67
2022/03/04 10:04:27;;;;;;;24.60;16.33;;;;;;;4.58;56.47;98440.56;5115026;28;20213;-67
2022/03/04 10:06:54;;;;;;;23.77;15.40;;;;;;;4.69;54.40;98421.78;5113740;28;20213;-67
2022/03/04 10:09:37;;;;;;;26.23;16.50;;;;;;;4.76;55.80;98426.72;5114775;28;20251;-67
2022/03/04 10:12:05;;;;;;;22.73;15.50;;;;;;;4.82;56.55;98423.84;5104115;28;20233;-68
2022/03/04 10:14:32;;;;;;;22.23;15.90;;;;;;;4.97;56.14;98427.59;5109845;28;20214;-69
2022/03/04 10:16:59;;;;;;;22.60;15.57;;;;;;;5.07;55.28;98424.50;5101609;28;20206;-67
2022/03/04 10:19:28;;;;;;;23.30;16.30;;;;;;;5.24;54.15;98426.41;5115383;28;20223;-68
2022/03/04 10:21:57;;;;;;;24.57;16.13;;;;;;;5.27;52.27;98434.16;5114124;28;20223;-67
2022/03/04 10:24:29;;;;;;;22.90;15.37;;;;;;;5.29;50.52;98414.81;5115051;28;20226;-67
2022/03/04 10:27:00;;;;;;;21.03;14.63;;;;;;;5.29;53.40;98422.69;5114723;28;20681;-67
2022/03/04 10:29:28;;;;;;;23.47;14.97;;;;;;;5.41;54.42;98416.91;5115760;28;20219;-67
2022/03/04 10:32:13;;;;;;;23.17;16.07;;;;;;;5.55;51.07;98422.38;5115757;28;20211;-67
2022/03/04 10:34:51;;;;;;;24.30;15.73;;;;;;;5.59;52.49;98415.22;5115326;28;20292;-67
2022/03/04 10:37:19;;;;;;;23.97;16.10;;;;;;;5.51;50.33;98415.56;5115454;28;20744;-67
2022/03/04 10:40:05;;;;;;;21.73;15.87;;;;;;;5.52;52.02;98419.91;5114349;28;20202;-67
2022/03/04 10:42:43;;;;;;;20.67;14.90;;;;;;;5.57;52.15;98420.53;5112485;28;20225;-67
2022/03/04 10:45:11;;;;;;;23.20;15.63;;;;;;;5.88;53.72;98409.53;5114092;28;20245;-67
2022/03/04 10:47:44;;;;;;;24.07;16.60;;;;;;;5.92;48.87;98411.13;5113790;28;20218;-67
2022/03/04 10:50:12;;;;;;;21.97;15.20;;;;;;;5.73;48.96;98408.44;5113886;28;20210;-67
2022/03/04 10:52:54;;;;;;;23.07;15.57;;;;;;;5.86;51.01;98406.16;5114118;28;20224;-67
2022/03/04 10:55:26;;;;;;;24.83;16.53;;;;;;;5.98;49.35;98411.66;5111634;28;20219;-67
2022/03/04 10:57:52;;;;;;;24.70;16.07;;;;;;;6.04;49.24;98406.13;5113897;28;20258;-67
2022/03/04 11:00:24;;;;;;;22.57;15.23;;;;;;;6.09;46.96;98409.41;5112486;28;20215;-68
2022/03/04 11:02:52;;;;;;;22.17;15.90;;;;;;;6.14;48.30;98402.16;5113852;28;20209;-69
2022/03/04 11:05:21;;;;;;;23.53;15.37;;;;;;;6.24;48.13;98395.53;5113518;28;20300;-68
2022/03/04 11:07:48;;;;;;;23.07;15.43;;;;;;;6.24;47.76;98406.03;5113763;28;20211;-66
2022/03/04 11:10:15;;;;;;;22.73;15.47;;;;;;;6.29;45.18;98395.34;5112347;28;20242;-68
2022/03/04 11:12:42;;;;;;;22.43;15.10;;;;;;;6.23;45.13;98406.97;5113877;28;20304;-68
2022/03/04 11:15:11;;;;;;;22.27;14.77;;;;;;;6.24;46.71;98400.78;5113505;28;20221;-66
2022/03/04 11:17:38;;;;;;;21.37;14.57;;;;;;;6.36;46.62;98397.56;5113382;28;20286;-66
2022/03/04 11:20:06;;;;;;;20.90;14.60;;;;;;;6.36;45.30;98397.56;5113718;28;20292;-68
2022/03/04 11:22:34;;;;;;;21.40;14.93;;;;;;;6.38;45.52;98403.63;5113384;28;20221;-68